Time;durP1;ratioP1;P1;durP2;ratioP2;P2;SDS_P1;SDS_P2;PMS_P1;PMS_P2;Temp;Humidity;BMP_temperature;BMP_pressure;BME280_temperature;BME280_humidity;BME280_pressure;Samples;Min_cycle;Max_cycle;Signal;HPM_P1;HPM_P2
2021/10/12 00:03:26;;;;;;;20.13;16.37;;;12.40;99.90;;;;;;10167676;29;20214;-83
2021/10/12 00:08:29;;;;;;;22.03;17.20;;;12.40;99.90;;;;;;10170291;29;20240;-83
2021/10/12 00:13:31;;;;;;;18.60;16.63;;;12.30;99.90;;;;;;10168391;29;20225;-83
2021/10/12 00:18:35;;;;;;;20.30;17.73;;;12.30;99.90;;;;;;10187438;29;20229;-84
2021/10/12 00:23:39;;;;;;;18.50;16.80;;;12.30;99.90;;;;;;10185769;29;20219;-84
2021/10/12 00:28:41;;;;;;;19.97;17.87;;;12.30;99.90;;;;;;10189510;29;20229;-83
2021/10/12 00:33:44;;;;;;;19.17;17.33;;;12.30;99.90;;;;;;10167928;29;20217;-83
2021/10/12 00:38:47;;;;;;;18.37;16.57;;;12.30;99.90;;;;;;10194235;29;20437;-83
2021/10/12 00:43:49;;;;;;;19.80;15.93;;;12.30;99.90;;;;;;10176868;29;20220;-84
2021/10/12 00:48:52;;;;;;;19.90;17.87;;;12.30;99.90;;;;;;10193683;29;20247;-84
2021/10/12 00:53:55;;;;;;;19.00;17.10;;;12.30;99.90;;;;;;10187176;29;20233;-83
2021/10/12 00:58:57;;;;;;;19.23;17.27;;;12.20;99.90;;;;;;10176292;29;20237;-84
2021/10/12 01:04:00;;;;;;;18.47;16.67;;;12.20;99.90;;;;;;10173442;29;20584;-83
2021/10/12 01:09:04;;;;;;;18.60;16.70;;;12.20;99.90;;;;;;10177694;29;20323;-83
2021/10/12 01:14:06;;;;;;;19.90;16.27;;;12.20;99.90;;;;;;10177513;29;20635;-83
2021/10/12 01:19:10;;;;;;;17.93;15.40;;;12.10;99.90;;;;;;10174296;29;20243;-84
2021/10/12 01:24:15;;;;;;;17.23;15.43;;;12.10;99.90;;;;;;10192866;29;20197;-83
2021/10/12 01:29:17;;;;;;;17.70;15.50;;;12.00;99.90;;;;;;10180443;29;20253;-83
2021/10/12 01:34:21;;;;;;;16.90;15.10;;;12.00;99.90;;;;;;10177110;29;20689;-83
2021/10/12 01:39:24;;;;;;;16.07;14.43;;;12.00;99.90;;;;;;10176986;29;20293;-83
2021/10/12 01:44:26;;;;;;;16.23;14.53;;;12.00;99.90;;;;;;10171425;29;20214;-83
2021/10/12 01:49:29;;;;;;;17.43;15.57;;;12.00;99.90;;;;;;10171378;29;20233;-83
2021/10/12 01:54:32;;;;;;;15.70;14.20;;;12.00;99.90;;;;;;10179326;29;20232;-82
2021/10/12 01:59:35;;;;;;;16.70;13.27;;;12.00;99.90;;;;;;10186174;29;20344;-84
2021/10/12 02:04:37;;;;;;;16.73;15.03;;;12.00;99.90;;;;;;10184476;29;20215;-83
2021/10/12 02:09:40;;;;;;;19.10;13.83;;;12.00;99.90;;;;;;10185015;29;20237;-83
2021/10/12 02:14:42;;;;;;;16.70;14.90;;;12.00;99.90;;;;;;10183955;29;20221;-84
2021/10/12 02:19:45;;;;;;;14.10;12.70;;;12.10;99.90;;;;;;10182227;29;20221;-84
2021/10/12 02:24:48;;;;;;;16.60;14.37;;;12.10;99.90;;;;;;10216594;29;20206;-84
2021/10/12 02:29:51;;;;;;;17.07;14.37;;;12.20;99.90;;;;;;10215837;29;20280;-83
2021/10/12 02:34:53;;;;;;;16.50;15.00;;;12.20;99.90;;;;;;10183140;29;20229;-83
2021/10/12 02:39:56;;;;;;;16.37;14.73;;;12.20;99.90;;;;;;10182952;29;20249;-83
2021/10/12 02:44:58;;;;;;;14.87;13.27;;;12.20;99.90;;;;;;10198230;29;20220;-84
2021/10/12 02:50:01;;;;;;;15.57;13.97;;;12.20;99.90;;;;;;10193787;29;20777;-83
2021/10/12 02:55:05;;;;;;;16.17;14.23;;;12.20;99.90;;;;;;10202431;29;20228;-82
2021/10/12 03:00:09;;;;;;;16.80;14.30;;;12.20;99.90;;;;;;10198047;29;20602;-83
2021/10/12 03:05:11;;;;;;;16.17;14.60;;;12.20;99.90;;;;;;10213703;29;20201;-84
2021/10/12 03:10:15;;;;;;;15.20;13.53;;;12.20;99.90;;;;;;10198053;29;20327;-83
2021/10/12 03:15:17;;;;;;;17.13;13.67;;;12.20;99.90;;;;;;10196494;29;20678;-84
2021/10/12 03:20:21;;;;;;;16.60;14.80;;;12.20;99.90;;;;;;10197532;29;20247;-83
2021/10/12 03:25:24;;;;;;;15.87;13.33;;;12.20;99.90;;;;;;10175872;29;20214;-83
2021/10/12 03:30:26;;;;;;;15.33;13.50;;;12.20;99.90;;;;;;10175115;29;20237;-84
2021/10/12 03:35:32;;;;;;;14.00;12.63;;;12.20;99.90;;;;;;10197010;29;20606;-84
2021/10/12 03:40:35;;;;;;;14.57;12.20;;;12.20;99.90;;;;;;10180469;29;20245;-83
2021/10/12 03:45:37;;;;;;;13.30;11.43;;;12.10;99.90;;;;;;10177277;29;20216;-84
2021/10/12 03:50:39;;;;;;;14.67;13.27;;;12.10;99.90;;;;;;10191237;29;20237;-84
2021/10/12 03:55:43;;;;;;;16.30;14.77;;;12.20;99.90;;;;;;10174349;29;20225;-84
2021/10/12 04:00:45;;;;;;;13.57;11.63;;;12.20;99.90;;;;;;10193581;29;20590;-83
2021/10/12 04:05:47;;;;;;;15.63;13.43;;;12.30;99.90;;;;;;10169959;29;20229;-82
2021/10/12 04:10:53;;;;;;;15.73;13.73;;;12.30;99.90;;;;;;10190442;29;20236;-83
2021/10/12 04:15:55;;;;;;;13.70;12.37;;;12.40;99.90;;;;;;10183420;29;20576;-84
2021/10/12 04:20:57;;;;;;;13.90;12.50;;;12.40;99.90;;;;;;10199890;29;20232;-83
2021/10/12 04:26:01;;;;;;;14.27;12.50;;;12.40;99.90;;;;;;10188064;29;20309;-83
2021/10/12 04:31:04;;;;;;;12.77;11.57;;;12.30;99.90;;;;;;10194458;29;20229;-83
2021/10/12 04:36:06;;;;;;;17.87;16.07;;;12.30;99.90;;;;;;10183952;29;20233;-83
2021/10/12 04:41:10;;;;;;;18.83;16.83;;;12.40;99.90;;;;;;10169165;29;20256;-83
2021/10/12 04:46:14;;;;;;;17.73;14.70;;;12.40;99.90;;;;;;10192387;29;20205;-84
2021/10/12 04:51:16;;;;;;;18.13;14.50;;;12.50;99.90;;;;;;10196848;29;20317;-84
2021/10/12 04:56:19;;;;;;;23.57;15.53;;;12.50;99.90;;;;;;10187348;29;20229;-84
2021/10/12 05:01:21;;;;;;;17.47;15.60;;;12.40;99.90;;;;;;10173508;29;20220;-84
2021/10/12 05:06:23;;;;;;;24.20;21.70;;;12.30;99.90;;;;;;10183610;29;20205;-83
2021/10/12 05:11:27;;;;;;;26.87;20.00;;;12.20;99.90;;;;;;10164745;29;20226;-83
2021/10/12 05:16:30;;;;;;;23.77;20.70;;;12.10;99.90;;;;;;10195020;29;20737;-84
2021/10/12 05:21:32;;;;;;;17.57;15.77;;;12.10;99.90;;;;;;10180191;29;20217;-83
2021/10/12 05:26:36;;;;;;;18.23;16.53;;;12.10;99.90;;;;;;10179087;29;20208;-83
2021/10/12 05:31:41;;;;;;;24.23;21.63;;;12.00;99.90;;;;;;10189776;29;20228;-82
2021/10/12 05:36:45;;;;;;;27.07;24.30;;;11.90;99.90;;;;;;10171755;29;20651;-84
2021/10/12 05:41:49;;;;;;;18.90;15.70;;;12.00;99.90;;;;;;10157985;29;20353;-83
2021/10/12 05:46:51;;;;;;;17.00;14.57;;;12.00;99.90;;;;;;10173534;29;20778;-83
2021/10/12 05:51:53;;;;;;;17.03;15.33;;;12.00;99.90;;;;;;10183385;29;20237;-83
2021/10/12 05:57:04;;;;;;;17.33;15.60;;;12.00;99.90;;;;;;10191959;29;20260;-83
2021/10/12 06:02:06;;;;;;;21.27;18.07;;;12.00;99.90;;;;;;10175899;29;20710;-83
2021/10/12 06:07:08;;;;;;;20.70;18.00;;;12.00;99.90;;;;;;10176126;29;20213;-83
2021/10/12 06:12:12;;;;;;;21.40;18.00;;;12.00;99.90;;;;;;10175311;29;20233;-83
2021/10/12 06:17:14;;;;;;;22.37;19.10;;;12.00;99.90;;;;;;10173981;29;20236;-83
2021/10/12 06:22:16;;;;;;;22.40;18.43;;;12.00;99.90;;;;;;10176228;29;20256;-83
2021/10/12 06:27:20;;;;;;;20.97;17.77;;;12.00;99.90;;;;;;10208343;29;20697;-83
2021/10/12 06:32:23;;;;;;;21.83;19.43;;;12.00;99.90;;;;;;10177196;29;20332;-83
2021/10/12 06:37:26;;;;;;;19.77;17.77;;;12.10;99.90;;;;;;10177749;29;20251;-83
2021/10/12 06:42:30;;;;;;;21.27;18.10;;;12.10;99.90;;;;;;10184199;29;20242;-82
2021/10/12 06:47:32;;;;;;;19.87;17.97;;;12.20;99.90;;;;;;10190004;29;20206;-83
2021/10/12 06:52:34;;;;;;;21.30;18.20;;;12.20;99.90;;;;;;10195781;29;20229;-82
2021/10/12 06:57:39;;;;;;;20.77;16.27;;;12.20;99.90;;;;;;10210942;29;20236;-83
2021/10/12 07:02:42;;;;;;;18.90;17.00;;;12.20;99.90;;;;;;10194032;29;20300;-84
2021/10/12 07:07:44;;;;;;;20.03;17.90;;;12.20;99.90;;;;;;10193708;29;20208;-83
2021/10/12 07:12:49;;;;;;;23.60;17.47;;;12.30;99.90;;;;;;10196307;29;20233;-83
2021/10/12 07:17:52;;;;;;;19.77;16.83;;;12.20;99.90;;;;;;10195712;29;20272;-83
2021/10/12 07:22:54;;;;;;;17.47;15.67;;;12.30;99.90;;;;;;10211631;29;20229;-83
2021/10/12 07:27:58;;;;;;;21.70;17.50;;;12.30;99.90;;;;;;10174992;29;20209;-83
2021/10/12 07:33:00;;;;;;;20.50;18.30;;;12.40;99.90;;;;;;10208995;29;20240;-82
2021/10/12 07:38:02;;;;;;;21.63;17.07;;;12.40;99.90;;;;;;10181221;29;20229;-82
2021/10/12 07:43:05;;;;;;;20.37;16.47;;;12.40;99.90;;;;;;10199130;29;20340;-82
2021/10/12 07:48:07;;;;;;;17.67;15.80;;;12.40;99.90;;;;;;10183921;29;20577;-82
2021/10/12 07:53:10;;;;;;;17.90;16.00;;;12.40;99.90;;;;;;10220207;29;20726;-83
2021/10/12 07:58:13;;;;;;;16.00;14.30;;;12.40;99.90;;;;;;10197635;29;20232;-83
2021/10/12 08:03:17;;;;;;;16.73;13.10;;;12.50;99.90;;;;;;10202737;29;20233;-82
2021/10/12 08:08:19;;;;;;;15.03;13.47;;;12.50;99.90;;;;;;10204239;29;20205;-82
2021/10/12 08:13:24;;;;;;;14.60;13.10;;;12.50;99.90;;;;;;10201363;29;20213;-82
2021/10/12 08:18:26;;;;;;;13.67;11.97;;;12.60;99.90;;;;;;10174268;29;20233;-82
2021/10/12 08:23:28;;;;;;;15.03;12.70;;;12.60;99.90;;;;;;10204407;29;20268;-83
2021/10/12 08:28:31;;;;;;;11.87;10.77;;;12.60;99.90;;;;;;10207681;29;20215;-83
2021/10/12 08:33:34;;;;;;;14.03;11.70;;;12.70;99.90;;;;;;10191672;29;20213;-83
2021/10/12 08:38:36;;;;;;;11.73;10.63;;;12.70;99.90;;;;;;10193607;29;20237;-83
2021/10/12 08:43:40;;;;;;;12.70;11.30;;;12.80;99.90;;;;;;10204227;29;20213;-84
2021/10/12 08:48:42;;;;;;;18.67;11.90;;;12.90;99.90;;;;;;10205927;29;20225;-83
2021/10/12 08:53:44;;;;;;;11.03;10.00;;;13.00;99.90;;;;;;10187138;29;20217;-83
2021/10/12 08:58:48;;;;;;;11.27;10.20;;;13.20;99.90;;;;;;10193435;29;20243;-82
2021/10/12 09:03:58;;;;;;;11.73;10.70;;;13.20;99.90;;;;;;10174771;29;20555;-82
2021/10/12 09:09:04;;;;;;;11.80;10.80;;;13.20;99.90;;;;;;10210829;29;20229;-83
2021/10/12 09:14:07;;;;;;;11.03;9.93;;;13.20;99.90;;;;;;10183023;29;20642;-83
2021/10/12 09:19:11;;;;;;;10.07;9.20;;;13.30;99.90;;;;;;10166276;29;20241;-83
2021/10/12 09:24:16;;;;;;;11.43;10.33;;;13.30;99.90;;;;;;10187119;29;20668;-82
2021/10/12 09:29:24;;;;;;;9.33;8.53;;;13.40;99.90;;;;;;10185192;29;20313;-83
2021/10/12 09:34:30;;;;;;;11.43;9.90;;;13.60;99.90;;;;;;10187571;29;20213;-82
2021/10/12 09:39:34;;;;;;;9.53;8.40;;;13.90;99.90;;;;;;10178756;29;20244;-82
2021/10/12 09:44:39;;;;;;;9.30;8.47;;;13.90;99.90;;;;;;10181604;29;20204;-83
2021/10/12 09:49:42;;;;;;;7.80;7.10;;;14.00;99.90;;;;;;10188415;29;20233;-82
2021/10/12 09:54:48;;;;;;;9.13;8.23;;;14.00;99.90;;;;;;10178835;29;20826;-83
2021/10/12 09:59:52;;;;;;;8.83;7.83;;;13.90;99.90;;;;;;10178975;29;20729;-83
2021/10/12 10:04:56;;;;;;;8.80;8.10;;;13.80;99.90;;;;;;10194906;29;20213;-82
2021/10/12 10:10:01;;;;;;;9.17;8.33;;;13.70;99.90;;;;;;10190864;29;20691;-82
2021/10/12 10:15:06;;;;;;;10.53;7.97;;;13.70;99.90;;;;;;10211763;29;20209;-82
2021/10/12 10:20:09;;;;;;;9.10;6.67;;;13.40;99.90;;;;;;10186758;29;20776;-82
2021/10/12 10:25:25;;;;;;;8.63;7.93;;;13.20;99.90;;;;;;10221246;29;20312;-82
2021/10/12 10:30:31;;;;;;;8.27;7.47;;;13.10;99.90;;;;;;10203416;29;20240;-82
2021/10/12 10:35:41;;;;;;;10.20;9.20;;;13.00;99.90;;;;;;10213442;29;20224;-82
2021/10/12 10:40:43;;;;;;;11.23;10.23;;;13.10;99.90;;;;;;10185837;29;20267;-82
2021/10/12 10:45:49;;;;;;;16.97;11.90;;;13.20;99.90;;;;;;10187328;29;20672;-82
2021/10/12 10:50:52;;;;;;;13.17;11.80;;;13.40;99.90;;;;;;10195984;29;20233;-82
2021/10/12 10:56:00;;;;;;;11.67;10.67;;;13.60;99.90;;;;;;10178682;29;20237;-82
2021/10/12 11:01:03;;;;;;;12.80;11.53;;;13.80;99.90;;;;;;10203328;29;20236;-82
2021/10/12 11:06:15;;;;;;;11.53;10.53;;;13.80;99.90;;;;;;10202227;29;20677;-82
2021/10/12 11:11:17;;;;;;;12.03;10.83;;;13.80;99.90;;;;;;10204470;29;20296;-82
2021/10/12 11:16:21;;;;;;;11.53;10.43;;;13.80;99.90;;;;;;10201433;29;20253;-82
2021/10/12 11:21:23;;;;;;;10.37;9.30;;;13.70;99.90;;;;;;10201808;29;20244;-82
2021/10/12 11:26:28;;;;;;;10.73;9.67;;;13.70;99.90;;;;;;10186450;29;20273;-82
2021/10/12 11:31:32;;;;;;;10.80;8.70;;;13.70;99.90;;;;;;10196051;29;20240;-82
2021/10/12 11:36:34;;;;;;;11.20;8.77;;;13.80;99.90;;;;;;10211703;29;20228;-82
2021/10/12 11:41:38;;;;;;;9.73;8.73;;;13.90;99.90;;;;;;10196144;29;20233;-82
2021/10/12 11:46:45;;;;;;;8.23;7.47;;;14.00;99.90;;;;;;10199497;29;20209;-82
2021/10/12 11:51:49;;;;;;;8.70;7.20;;;14.20;99.90;;;;;;10180596;29;20239;-82
2021/10/12 11:56:52;;;;;;;7.50;6.70;;;14.30;99.90;;;;;;10214833;29;20571;-82
2021/10/12 12:01:57;;;;;;;8.80;6.33;;;14.50;99.90;;;;;;10201519;29;20784;-82
2021/10/12 12:07:00;;;;;;;10.40;6.60;;;14.60;99.90;;;;;;10197715;29;20595;-82
2021/10/12 12:12:05;;;;;;;9.20;6.37;;;14.70;99.90;;;;;;10181834;29;20304;-82
2021/10/12 12:17:13;;;;;;;7.80;5.70;;;14.70;99.90;;;;;;10177779;29;20245;-82
2021/10/12 12:22:17;;;;;;;7.87;5.60;;;14.70;99.90;;;;;;10197347;29;20233;-82
2021/10/12 12:27:19;;;;;;;6.93;5.80;;;14.60;99.90;;;;;;10200103;29;20209;-82
2021/10/12 12:32:23;;;;;;;7.50;5.60;;;14.50;99.90;;;;;;10184870;29;20755;-82
2021/10/12 12:37:26;;;;;;;7.73;5.57;;;14.50;99.90;;;;;;10218948;29;20260;-82
2021/10/12 12:42:31;;;;;;;7.93;5.80;;;14.60;99.90;;;;;;10199942;29;20683;-82
2021/10/12 12:47:35;;;;;;;6.63;5.80;;;14.70;99.90;;;;;;10187109;29;20276;-82
2021/10/12 12:52:37;;;;;;;6.40;4.67;;;14.70;99.90;;;;;;10172230;29;20248;-82
2021/10/12 12:57:39;;;;;;;5.60;5.20;;;14.70;99.90;;;;;;10204274;29;20236;-82
2021/10/12 13:02:53;;;;;;;6.00;5.40;;;14.70;99.90;;;;;;10200583;29;20240;-82
2021/10/12 13:07:56;;;;;;;6.93;5.90;;;14.60;99.90;;;;;;10202406;29;20200;-82
2021/10/12 13:12:58;;;;;;;11.10;7.03;;;14.60;99.90;;;;;;10184162;29;20704;-82
2021/10/12 13:18:03;;;;;;;10.40;6.60;;;14.70;99.90;;;;;;10205316;29;20244;-82
2021/10/12 13:23:05;;;;;;;7.67;6.53;;;14.70;99.90;;;;;;10146427;29;20642;-82
2021/10/12 13:28:09;;;;;;;7.07;6.47;;;14.60;99.90;;;;;;10164188;29;20205;-82
2021/10/12 13:33:13;;;;;;;7.40;6.70;;;14.60;99.90;;;;;;10161544;29;20222;-82
2021/10/12 13:38:16;;;;;;;6.40;5.90;;;14.60;99.90;;;;;;10159839;29;20279;-82
2021/10/12 13:43:20;;;;;;;8.10;6.10;;;14.60;99.90;;;;;;10143258;29;20202;-82
2021/10/12 13:48:23;;;;;;;7.37;5.97;;;14.50;99.90;;;;;;10142513;29;20213;-82
2021/10/12 13:53:27;;;;;;;5.30;4.77;;;14.50;99.90;;;;;;10152692;29;20198;-82
2021/10/12 13:58:29;;;;;;;5.53;5.00;;;14.50;99.90;;;;;;10170507;29;20226;-82
2021/10/12 14:03:34;;;;;;;5.13;4.83;;;14.50;99.90;;;;;;10168069;29;20685;-82
2021/10/12 14:08:37;;;;;;;8.90;6.00;;;14.50;99.90;;;;;;10188939;29;20206;-82
2021/10/12 14:13:40;;;;;;;5.40;5.00;;;14.40;99.90;;;;;;10170053;29;20726;-82
2021/10/12 14:18:43;;;;;;;6.13;5.60;;;14.40;99.90;;;;;;10150282;29;20244;-82
2021/10/12 14:23:47;;;;;;;6.23;5.63;;;14.40;99.90;;;;;;10146771;29;20217;-82
2021/10/12 14:28:50;;;;;;;6.93;5.83;;;14.30;99.90;;;;;;10166384;29;20261;-82
2021/10/12 14:33:53;;;;;;;6.13;5.63;;;14.30;99.90;;;;;;10167832;29;20257;-82
2021/10/12 14:38:55;;;;;;;7.87;6.37;;;14.30;99.90;;;;;;10163186;29;20233;-81
2021/10/12 14:43:57;;;;;;;7.23;5.87;;;14.30;99.90;;;;;;10145731;29;20201;-82
2021/10/12 14:49:01;;;;;;;6.90;6.30;;;14.30;99.90;;;;;;10147804;29;20313;-82
2021/10/12 14:54:03;;;;;;;7.93;6.77;;;14.30;99.90;;;;;;10161398;29;20202;-82
2021/10/12 14:59:06;;;;;;;11.30;6.40;;;14.20;99.90;;;;;;10147459;29;20320;-82
2021/10/12 15:04:09;;;;;;;7.63;6.73;;;14.30;99.90;;;;;;10145776;29;20213;-82
2021/10/12 15:09:12;;;;;;;5.77;5.30;;;14.30;99.90;;;;;;10148524;29;20253;-82
2021/10/12 15:14:15;;;;;;;6.93;6.33;;;14.30;99.90;;;;;;10144847;29;20568;-82
2021/10/12 15:19:19;;;;;;;8.77;6.63;;;14.20;99.90;;;;;;10178803;29;20745;-82
2021/10/12 15:24:21;;;;;;;9.13;6.00;;;14.20;99.90;;;;;;10147107;29;20206;-82
2021/10/12 15:29:24;;;;;;;6.37;5.70;;;14.10;99.90;;;;;;10145559;29;20606;-82
2021/10/12 15:34:28;;;;;;;5.80;5.30;;;14.10;99.90;;;;;;10160982;29;20213;-81
2021/10/12 15:39:31;;;;;;;5.57;4.63;;;14.10;99.90;;;;;;10176913;29;20649;-82
2021/10/12 15:44:34;;;;;;;6.10;5.20;;;14.10;99.90;;;;;;10181271;29;20201;-82
2021/10/12 15:49:38;;;;;;;5.37;4.47;;;14.10;99.90;;;;;;10168091;29;20321;-82
2021/10/12 15:54:41;;;;;;;6.60;5.90;;;14.00;99.90;;;;;;10165567;29;20310;-81
2021/10/12 15:59:45;;;;;;;5.40;5.00;;;14.00;99.90;;;;;;10160577;29;20241;-82
2021/10/12 16:04:49;;;;;;;8.33;5.83;;;14.00;99.90;;;;;;10150008;29;20209;-82
2021/10/12 16:09:51;;;;;;;5.27;4.67;;;14.00;99.90;;;;;;10168374;29;20221;-82
2021/10/12 16:25:32;;;;;;;7.10;6.50;;;14.00;99.90;;;;;;10183354;29;20543;-82
2021/10/12 16:30:35;;;;;;;6.60;6.00;;;13.90;99.90;;;;;;10163426;29;20221;-81
2021/10/12 16:35:40;;;;;;;6.07;5.50;;;13.90;99.90;;;;;;10166236;29;20202;-81
2021/10/12 16:40:42;;;;;;;7.50;6.40;;;13.80;99.90;;;;;;10165613;29;20226;-83
2021/10/12 16:45:44;;;;;;;6.13;5.60;;;13.80;99.90;;;;;;10183507;29;20229;-82
2021/10/12 16:50:48;;;;;;;8.70;6.87;;;13.80;99.90;;;;;;10155388;29;20325;-83
2021/10/12 16:55:51;;;;;;;6.53;5.93;;;13.70;99.90;;;;;;10157062;29;20683;-83
2021/10/12 17:00:53;;;;;;;8.80;6.40;;;13.70;99.90;;;;;;10170340;29;20238;-83
2021/10/12 17:05:57;;;;;;;9.10;6.73;;;13.60;99.90;;;;;;10167359;29;20261;-82
2021/10/12 17:10:59;;;;;;;8.07;7.20;;;13.40;99.90;;;;;;10165877;29;20210;-83
2021/10/12 17:16:01;;;;;;;8.30;7.53;;;13.30;99.90;;;;;;10182798;29;20198;-83
2021/10/12 17:21:05;;;;;;;9.27;7.90;;;13.20;99.90;;;;;;10149061;29;20675;-83
2021/10/12 17:26:37;;;;;;;7.73;6.40;;;13.10;99.90;;;;;;10143373;29;20228;-83
2021/10/12 17:31:50;;;;;;;7.40;6.70;;;13.00;99.90;;;;;;10147935;29;20236;-83
2021/10/12 17:36:54;;;;;;;9.83;8.60;;;13.00;99.90;;;;;;10168287;29;20209;-83
2021/10/12 17:41:57;;;;;;;8.13;7.43;;;12.90;99.90;;;;;;10177521;29;20237;-83
2021/10/12 17:47:00;;;;;;;8.03;7.33;;;12.80;99.90;;;;;;10166321;29;20284;-84
2021/10/12 17:52:16;;;;;;;11.00;7.97;;;12.80;99.90;;;;;;10181000;29;20255;-83
2021/10/12 17:57:19;;;;;;;10.33;7.63;;;12.80;99.90;;;;;;10163624;29;20201;-83
2021/10/12 18:02:24;;;;;;;9.63;8.20;;;12.70;99.90;;;;;;10177495;29;20236;-83
2021/10/12 18:07:27;;;;;;;11.97;7.47;;;12.70;99.90;;;;;;10161871;29;20198;-83
2021/10/12 18:12:30;;;;;;;10.13;9.23;;;12.70;99.90;;;;;;10166498;29;20272;-83
2021/10/12 18:17:32;;;;;;;8.00;7.30;;;12.70;99.90;;;;;;10169075;29;20248;-82
2021/10/12 18:22:35;;;;;;;9.00;7.83;;;12.60;99.90;;;;;;10180252;29;20222;-83
2021/10/12 18:27:37;;;;;;;8.67;7.80;;;12.60;99.90;;;;;;10181669;29;20198;-83
2021/10/12 18:32:39;;;;;;;9.60;8.07;;;12.60;99.90;;;;;;10198732;29;20252;-84
2021/10/12 18:37:43;;;;;;;8.37;7.77;;;12.50;99.90;;;;;;10183085;29;20234;-83
2021/10/12 18:42:45;;;;;;;6.30;5.70;;;12.50;99.90;;;;;;10186146;29;20300;-82
2021/10/12 18:47:47;;;;;;;7.10;6.43;;;12.50;99.90;;;;;;10199139;29;20209;-82
2021/10/12 18:52:52;;;;;;;7.57;6.87;;;12.50;99.90;;;;;;10191662;29;20217;-81
2021/10/12 18:57:54;;;;;;;7.47;6.60;;;12.50;99.90;;;;;;10181919;29;20237;-82
2021/10/12 19:02:56;;;;;;;8.63;7.67;;;12.50;99.90;;;;;;10194862;29;20227;-82
2021/10/12 19:08:00;;;;;;;6.80;5.70;;;12.50;99.90;;;;;;10194721;29;20197;-82
2021/10/12 19:13:02;;;;;;;6.53;5.93;;;12.50;99.90;;;;;;10209871;29;20316;-83
2021/10/12 19:18:04;;;;;;;6.83;6.23;;;12.40;99.90;;;;;;10197459;29;20325;-83
2021/10/12 19:23:07;;;;;;;5.93;5.43;;;12.40;99.90;;;;;;10200067;29;20771;-83
2021/10/12 19:28:10;;;;;;;6.23;5.80;;;12.40;99.90;;;;;;10206256;29;20213;-82
2021/10/12 19:33:12;;;;;;;6.27;5.87;;;12.40;99.90;;;;;;10210620;29;20236;-82
2021/10/12 19:38:16;;;;;;;4.73;4.43;;;12.40;99.90;;;;;;10211970;29;20221;-82
2021/10/12 19:43:18;;;;;;;6.23;5.63;;;12.40;99.90;;;;;;10210806;29;20257;-83
2021/10/12 19:48:21;;;;;;;5.10;4.70;;;12.40;99.90;;;;;;10214416;29;20491;-83
2021/10/12 19:53:24;;;;;;;6.23;5.77;;;12.40;99.90;;;;;;10173514;29;20671;-83
2021/10/12 19:58:26;;;;;;;6.40;5.90;;;12.40;99.90;;;;;;10153650;29;20320;-83
2021/10/12 20:03:49;;;;;;;7.00;6.50;;;12.40;99.90;;;;;;10147423;29;20210;-83
2021/10/12 20:08:54;;;;;;;8.80;8.00;;;12.40;99.90;;;;;;10165174;29;20225;-83
2021/10/12 20:13:57;;;;;;;8.60;7.90;;;12.40;99.90;;;;;;10161855;29;20210;-82
2021/10/12 20:24:21;;;;;;;8.03;7.33;;;12.20;99.90;;;;;;10146043;29;20204;-82
2021/10/12 20:29:23;;;;;;;7.50;7.00;;;12.20;99.90;;;;;;10161476;29;20226;-83
2021/10/12 20:34:25;;;;;;;10.83;8.30;;;12.20;99.90;;;;;;10148244;29;20209;-83
2021/10/12 20:39:28;;;;;;;7.20;6.70;;;12.20;99.90;;;;;;10159908;29;20242;-83
2021/10/12 20:44:30;;;;;;;8.10;7.50;;;12.20;99.90;;;;;;10169646;29;20209;-82
2021/10/12 20:49:33;;;;;;;9.47;8.47;;;12.10;99.90;;;;;;10181284;29;20237;-83
2021/10/12 20:54:36;;;;;;;8.73;7.93;;;12.20;99.90;;;;;;10150388;29;20214;-83
2021/10/12 20:59:38;;;;;;;9.40;8.70;;;12.20;99.90;;;;;;10155792;29;20230;-83
2021/10/12 21:04:40;;;;;;;10.27;9.20;;;12.20;99.90;;;;;;10175158;29;20202;-83
2021/10/12 21:09:44;;;;;;;10.50;9.60;;;12.20;99.90;;;;;;10138909;29;20226;-82
2021/10/12 21:14:46;;;;;;;12.57;11.47;;;12.20;99.90;;;;;;10171849;29;20622;-83
2021/10/12 21:19:48;;;;;;;11.57;10.63;;;12.20;99.90;;;;;;10117509;29;20241;-83
2021/10/12 21:24:52;;;;;;;12.27;11.07;;;12.30;99.90;;;;;;10133388;29;20203;-84
2021/10/12 21:29:54;;;;;;;11.00;10.20;;;12.40;99.90;;;;;;10116859;29;20221;-83
2021/10/12 21:34:56;;;;;;;11.73;10.63;;;12.40;99.90;;;;;;10116500;29;20315;-83
2021/10/12 21:40:04;;;;;;;10.97;10.13;;;12.30;99.90;;;;;;10118579;29;20239;-83
2021/10/12 21:45:17;;;;;;;12.03;10.57;;;12.30;99.90;;;;;;10122315;29;20199;-83
2021/10/12 21:50:24;;;;;;;12.10;10.83;;;12.30;99.90;;;;;;10147434;29;20630;-83
2021/10/12 21:55:45;;;;;;;12.10;10.97;;;12.20;99.90;;;;;;10155580;29;20194;-83
2021/10/12 22:00:50;;;;;;;11.20;10.20;;;12.20;99.90;;;;;;10154814;29;20709;-83
2021/10/12 22:06:07;;;;;;;12.10;10.93;;;12.10;99.90;;;;;;10155969;29;20209;-83
2021/10/12 22:11:16;;;;;;;8.87;8.17;;;12.10;99.90;;;;;;10156623;29;20226;-84
2021/10/12 22:16:18;;;;;;;10.07;9.37;;;12.00;99.90;;;;;;10178482;29;20205;-84
2021/10/12 22:21:20;;;;;;;9.73;8.93;;;12.00;99.90;;;;;;10145501;29;20248;-84
2021/10/12 22:26:23;;;;;;;10.90;9.80;;;12.00;99.90;;;;;;10161122;29;20217;-84
2021/10/12 22:31:25;;;;;;;12.20;10.40;;;12.00;99.90;;;;;;10177540;29;20233;-84
2021/10/12 22:36:27;;;;;;;10.60;9.63;;;11.90;99.90;;;;;;10179447;29;20209;-84
2021/10/12 22:46:50;;;;;;;12.00;10.93;;;11.80;99.90;;;;;;10204015;29;20260;-85
2021/10/12 22:51:52;;;;;;;10.83;10.03;;;11.70;99.90;;;;;;10204008;29;20237;-84
2021/10/12 22:56:56;;;;;;;10.80;9.90;;;11.60;99.90;;;;;;10188151;29;20216;-85
2021/10/12 23:01:59;;;;;;;13.83;12.43;;;11.60;99.90;;;;;;10188308;29;20275;-84
2021/10/12 23:07:01;;;;;;;14.20;12.90;;;11.60;99.90;;;;;;10187372;29;20213;-85
2021/10/12 23:12:05;;;;;;;14.17;12.87;;;11.60;99.90;;;;;;10201966;29;20721;-85
2021/10/12 23:17:08;;;;;;;13.90;12.63;;;11.60;99.90;;;;;;10184266;29;20221;-85
2021/10/12 23:22:10;;;;;;;13.77;12.50;;;11.60;99.90;;;;;;10199325;29;20240;-86
2021/10/12 23:27:13;;;;;;;16.10;14.33;;;11.70;99.90;;;;;;10185007;29;20582;-85
2021/10/12 23:32:15;;;;;;;15.23;13.63;;;11.60;99.90;;;;;;10200875;29;20209;-85
2021/10/12 23:37:17;;;;;;;15.73;14.13;;;11.70;99.90;;;;;;10185813;29;20321;-86
2021/10/12 23:42:21;;;;;;;16.53;14.93;;;11.70;99.90;;;;;;10200259;29;20563;-85
2021/10/12 23:47:23;;;;;;;15.17;13.83;;;11.80;99.90;;;;;;10191804;29;20201;-86
2021/10/12 23:52:25;;;;;;;16.00;14.50;;;11.80;99.90;;;;;;10200857;29;20221;-85
2021/10/12 23:57:29;;;;;;;15.07;13.67;;;11.80;99.90;;;;;;10198876;29;20209;-86
